sensor_id;sensor_type;location;lat;lon;timestamp;pressure;altitude;pressure_sealevel;temperature;humidity
75855;BME280;64502;59.976;30.316;2024-03-23T00:55:02;98977.03;;;3.13;91.46
75855;BME280;64502;59.976;30.316;2024-03-23T00:57:28;98967.72;;;3.09;91.96
75855;BME280;64502;59.976;30.316;2024-03-23T00:59:54;98957.31;;;3.09;92.20
75855;BME280;64502;59.976;30.316;2024-03-23T01:02:19;98952.94;;;3.09;92.34
75855;BME280;64502;59.976;30.316;2024-03-23T01:04:45;98953.00;;;3.08;91.83
75855;BME280;64502;59.976;30.316;2024-03-23T01:09:55;98944.53;;;3.04;92.35
75855;BME280;64502;59.976;30.316;2024-03-23T01:12:20;98929.72;;;3.05;92.99
75855;BME280;64502;59.976;30.316;2024-03-23T01:14:46;98933.16;;;3.05;92.64
75855;BME280;64502;59.976;30.316;2024-03-23T01:17:12;98928.81;;;3.06;92.51
75855;BME280;64502;59.976;30.316;2024-03-23T01:19:38;98920.91;;;3.07;92.70
75855;BME280;64502;59.976;30.316;2024-03-23T01:22:04;98915.69;;;3.07;92.92
75855;BME280;64502;59.976;30.316;2024-03-23T01:24:30;98920.72;;;3.10;93.21
75855;BME280;64502;59.976;30.316;2024-03-23T01:26:56;98901.66;;;3.10;92.56
75855;BME280;64502;59.976;30.316;2024-03-23T01:29:22;98908.47;;;3.13;93.13
75855;BME280;64502;59.976;30.316;2024-03-23T01:31:47;98898.69;;;3.16;93.19
75855;BME280;64502;59.976;30.316;2024-03-23T01:34:13;98895.19;;;3.17;92.72
75855;BME280;64502;59.976;30.316;2024-03-23T01:36:39;98883.91;;;3.17;93.11
75855;BME280;64502;59.976;30.316;2024-03-23T01:39:05;98879.53;;;3.17;93.09
75855;BME280;64502;59.976;30.316;2024-03-23T01:41:31;98870.88;;;3.17;92.68
75855;BME280;64502;59.976;30.316;2024-03-23T01:43:56;98866.59;;;3.16;93.36
75855;BME280;64502;59.976;30.316;2024-03-23T01:46:22;98867.34;;;3.18;92.91
75855;BME280;64502;59.976;30.316;2024-03-23T01:48:48;98856.09;;;3.17;92.64
75855;BME280;64502;59.976;30.316;2024-03-23T01:51:15;98855.06;;;3.20;93.50
75855;BME280;64502;59.976;30.316;2024-03-23T01:53:40;98855.72;;;3.23;92.99
75855;BME280;64502;59.976;30.316;2024-03-23T01:56:06;98850.31;;;3.26;93.73
75855;BME280;64502;59.976;30.316;2024-03-23T01:58:32;98840.72;;;3.27;93.37
75855;BME280;64502;59.976;30.316;2024-03-23T02:00:58;98844.84;;;3.31;93.31
75855;BME280;64502;59.976;30.316;2024-03-23T02:03:25;98836.19;;;3.30;93.37
75855;BME280;64502;59.976;30.316;2024-03-23T02:05:52;98835.53;;;3.27;93.25
75855;BME280;64502;59.976;30.316;2024-03-23T02:08:22;98826.88;;;3.26;93.19
75855;BME280;64502;59.976;30.316;2024-03-23T02:10:49;98837.41;;;3.25;92.88
75855;BME280;64502;59.976;30.316;2024-03-23T02:13:15;98827.63;;;3.28;93.50
75855;BME280;64502;59.976;30.316;2024-03-23T02:15:41;98821.28;;;3.32;93.32
75855;BME280;64502;59.976;30.316;2024-03-23T02:18:08;98827.25;;;3.34;93.58
75855;BME280;64502;59.976;30.316;2024-03-23T02:20:37;98816.66;;;3.38;93.85
75855;BME280;64502;59.976;30.316;2024-03-23T02:23:04;98812.19;;;3.40;93.88
75855;BME280;64502;59.976;30.316;2024-03-23T02:25:32;98816.66;;;3.38;93.34
75855;BME280;64502;59.976;30.316;2024-03-23T02:27:58;98817.41;;;3.40;93.70
75855;BME280;64502;59.976;30.316;2024-03-23T02:30:25;98819.06;;;3.41;93.78
75855;BME280;64502;59.976;30.316;2024-03-23T02:32:50;98796.63;;;3.38;93.80
75855;BME280;64502;59.976;30.316;2024-03-23T02:35:16;98808.63;;;3.41;93.98
75855;BME280;64502;59.976;30.316;2024-03-23T02:37:42;98807.06;;;3.38;94.77
75855;BME280;64502;59.976;30.316;2024-03-23T02:40:07;98795.72;;;3.39;94.33
75855;BME280;64502;59.976;30.316;2024-03-23T02:42:33;98803.44;;;3.41;94.22
75855;BME280;64502;59.976;30.316;2024-03-23T02:44:59;98793.00;;;3.41;94.52
75855;BME280;64502;59.976;30.316;2024-03-23T02:47:25;98786.13;;;3.40;95.08
75855;BME280;64502;59.976;30.316;2024-03-23T02:49:50;98793.88;;;3.41;94.94
75855;BME280;64502;59.976;30.316;2024-03-23T02:52:16;98783.44;;;3.41;95.26
75855;BME280;64502;59.976;30.316;2024-03-23T02:54:41;98786.88;;;3.42;95.21
75855;BME280;64502;59.976;30.316;2024-03-23T02:57:11;98784.16;;;3.43;95.63
75855;BME280;64502;59.976;30.316;2024-03-23T02:59:36;98782.31;;;3.45;95.44
75855;BME280;64502;59.976;30.316;2024-03-23T03:02:02;98774.47;;;3.45;95.64
75855;BME280;64502;59.976;30.316;2024-03-23T03:04:30;98772.72;;;3.46;95.43
75855;BME280;64502;59.976;30.316;2024-03-23T03:06:56;98771.69;;;3.48;95.75
75855;BME280;64502;59.976;30.316;2024-03-23T03:09:22;98766.47;;;3.48;95.52
75855;BME280;64502;59.976;30.316;2024-03-23T03:11:47;98775.13;;;3.49;95.70
75855;BME280;64502;59.976;30.316;2024-03-23T03:14:13;98772.44;;;3.50;95.76
75855;BME280;64502;59.976;30.316;2024-03-23T03:16:43;98768.88;;;3.51;95.92
75855;BME280;64502;59.976;30.316;2024-03-23T03:19:09;98769.00;;;3.50;96.41
75855;BME280;64502;59.976;30.316;2024-03-23T03:21:36;98769.84;;;3.50;95.40
75855;BME280;64502;59.976;30.316;2024-03-23T03:24:02;98769.84;;;3.50;96.07
75855;BME280;64502;59.976;30.316;2024-03-23T03:26:28;98758.56;;;3.50;95.49
75855;BME280;64502;59.976;30.316;2024-03-23T03:28:53;98760.22;;;3.51;96.00
75855;BME280;64502;59.976;30.316;2024-03-23T03:31:19;98755.97;;;3.50;95.77
75855;BME280;64502;59.976;30.316;2024-03-23T03:33:45;98751.59;;;3.50;96.99
75855;BME280;64502;59.976;30.316;2024-03-23T03:36:11;98756.59;;;3.53;96.21
75855;BME280;64502;59.976;30.316;2024-03-23T03:38:36;98745.34;;;3.53;96.42
75855;BME280;64502;59.976;30.316;2024-03-23T03:41:04;98751.38;;;3.53;97.10
75855;BME280;64502;59.976;30.316;2024-03-23T03:43:30;98737.34;;;3.56;96.78
75855;BME280;64502;59.976;30.316;2024-03-23T03:45:57;98738.09;;;3.58;96.48
75855;BME280;64502;59.976;30.316;2024-03-23T03:51:09;98739.56;;;3.62;96.42
75855;BME280;64502;59.976;30.316;2024-03-23T03:53:35;98732.47;;;3.64;97.03
75855;BME280;64502;59.976;30.316;2024-03-23T03:56:01;98730.63;;;3.66;96.97
75855;BME280;64502;59.976;30.316;2024-03-23T03:58:45;98728.84;;;3.67;97.21
75855;BME280;64502;59.976;30.316;2024-03-23T04:01:10;98727.81;;;3.69;95.92
75855;BME280;64502;59.976;30.316;2024-03-23T04:03:36;98727.81;;;3.69;96.38
75855;BME280;64502;59.976;30.316;2024-03-23T04:06:02;98729.59;;;3.69;96.62
75855;BME280;64502;59.976;30.316;2024-03-23T04:08:28;98729.59;;;3.69;96.71
75855;BME280;64502;59.976;30.316;2024-03-23T04:10:54;98733.22;;;3.66;95.97
75855;BME280;64502;59.976;30.316;2024-03-23T04:13:19;98733.22;;;3.66;97.07
75855;BME280;64502;59.976;30.316;2024-03-23T04:15:45;98730.44;;;3.69;97.03
75855;BME280;64502;59.976;30.316;2024-03-23T04:18:10;98727.00;;;3.69;96.73
75855;BME280;64502;59.976;30.316;2024-03-23T04:20:36;98725.28;;;3.68;97.00
75855;BME280;64502;59.976;30.316;2024-03-23T04:23:01;98761.72;;;3.69;96.51
75855;BME280;64502;59.976;30.316;2024-03-23T04:25:27;98754.09;;;3.66;96.86
75855;BME280;64502;59.976;30.316;2024-03-23T04:27:53;98746.16;;;3.68;97.18
75855;BME280;64502;59.976;30.316;2024-03-23T04:30:18;98738.53;;;3.65;97.08
75855;BME280;64502;59.976;30.316;2024-03-23T04:32:44;98747.28;;;3.64;96.87
75855;BME280;64502;59.976;30.316;2024-03-23T04:35:10;98748.31;;;3.61;97.04
75855;BME280;64502;59.976;30.316;2024-03-23T04:37:36;98744.31;;;3.55;97.10
75855;BME280;64502;59.976;30.316;2024-03-23T04:40:03;98755.03;;;3.51;97.19
75855;BME280;64502;59.976;30.316;2024-03-23T04:42:29;98748.16;;;3.50;97.00
75855;BME280;64502;59.976;30.316;2024-03-23T04:44:56;98742.94;;;3.50;96.80
75855;BME280;64502;59.976;30.316;2024-03-23T04:50:05;98754.66;;;3.43;97.48
75855;BME280;64502;59.976;30.316;2024-03-23T04:52:31;98756.59;;;3.39;97.29
75855;BME280;64502;59.976;30.316;2024-03-23T04:54:57;98757.53;;;3.38;96.88
75855;BME280;64502;59.976;30.316;2024-03-23T04:57:22;98769.84;;;3.36;96.88
75855;BME280;64502;59.976;30.316;2024-03-23T04:59:48;98758.72;;;3.32;97.29
75855;BME280;64502;59.976;30.316;2024-03-23T05:02:32;98757.81;;;3.33;97.07
75855;BME280;64502;59.976;30.316;2024-03-23T05:05:00;98752.03;;;3.28;97.04
75855;BME280;64502;59.976;30.316;2024-03-23T05:07:25;98762.47;;;3.28;97.11
75855;BME280;64502;59.976;30.316;2024-03-23T05:09:52;98756.59;;;3.25;97.46
75855;BME280;64502;59.976;30.316;2024-03-23T05:12:18;98762.72;;;3.24;96.84
75855;BME280;64502;59.976;30.316;2024-03-23T05:14:43;98763.84;;;3.20;97.45
75855;BME280;64502;59.976;30.316;2024-03-23T05:17:10;98764.03;;;3.17;96.92
75855;BME280;64502;59.976;30.316;2024-03-23T05:19:36;98762.47;;;3.14;97.26
75855;BME280;64502;59.976;30.316;2024-03-23T05:22:01;98764.31;;;3.12;97.38
75855;BME280;64502;59.976;30.316;2024-03-23T05:24:27;98761.69;;;3.12;97.29
75855;BME280;64502;59.976;30.316;2024-03-23T05:26:54;98760.75;;;3.13;97.39
75855;BME280;64502;59.976;30.316;2024-03-23T05:29:20;98758.06;;;3.15;97.70
75855;BME280;64502;59.976;30.316;2024-03-23T05:31:49;98766.53;;;3.18;97.65
75855;BME280;64502;59.976;30.316;2024-03-23T05:34:15;98762.16;;;3.19;97.07
75855;BME280;64502;59.976;30.316;2024-03-23T05:36:40;98768.25;;;3.19;97.06
75855;BME280;64502;59.976;30.316;2024-03-23T05:39:06;98760.13;;;3.24;97.41
75855;BME280;64502;59.976;30.316;2024-03-23T05:41:31;98773.06;;;3.25;97.10
75855;BME280;64502;59.976;30.316;2024-03-23T05:46:41;98755.47;;;3.29;96.54
75855;BME280;64502;59.976;30.316;2024-03-23T05:49:08;98762.47;;;3.28;97.01
75855;BME280;64502;59.976;30.316;2024-03-23T05:51:52;98761.25;;;3.34;96.89
75855;BME280;64502;59.976;30.316;2024-03-23T05:54:18;98757.06;;;3.31;96.36
75855;BME280;64502;59.976;30.316;2024-03-23T05:56:43;98773.72;;;3.29;96.09
75855;BME280;64502;59.976;30.316;2024-03-23T05:59:09;98760.81;;;3.27;95.70
75855;BME280;64502;59.976;30.316;2024-03-23T06:01:35;98769.72;;;3.23;95.38
75855;BME280;64502;59.976;30.316;2024-03-23T06:04:00;98770.72;;;3.21;96.08
75855;BME280;64502;59.976;30.316;2024-03-23T06:06:27;98779.38;;;3.21;95.88
75855;BME280;64502;59.976;30.316;2024-03-23T06:08:55;98779.56;;;3.18;95.68
75855;BME280;64502;59.976;30.316;2024-03-23T06:11:21;98777.91;;;3.17;96.05
75855;BME280;64502;59.976;30.316;2024-03-23T06:13:46;98773.53;;;3.18;96.10
75855;BME280;64502;59.976;30.316;2024-03-23T06:16:12;98785.53;;;3.20;96.30
75855;BME280;64502;59.976;30.316;2024-03-23T06:18:39;98782.19;;;3.18;95.92
75855;BME280;64502;59.976;30.316;2024-03-23T06:21:08;98776.78;;;3.21;96.37
75855;BME280;64502;59.976;30.316;2024-03-23T06:23:38;98785.34;;;3.23;95.99
75855;BME280;64502;59.976;30.316;2024-03-23T06:26:03;98786.94;;;3.26;95.42
75855;BME280;64502;59.976;30.316;2024-03-23T06:28:30;98782.47;;;3.28;96.09
75855;BME280;64502;59.976;30.316;2024-03-23T06:30:55;98787.50;;;3.31;95.88
75855;BME280;64502;59.976;30.316;2024-03-23T06:33:21;98788.34;;;3.31;95.50
75855;BME280;64502;59.976;30.316;2024-03-23T06:35:51;98787.50;;;3.31;95.02
75855;BME280;64502;59.976;30.316;2024-03-23T06:38:18;98794.56;;;3.29;95.24
75855;BME280;64502;59.976;30.316;2024-03-23T06:40:43;98791.13;;;3.28;94.67
75855;BME280;64502;59.976;30.316;2024-03-23T06:43:15;98784.25;;;3.27;95.21
75855;BME280;64502;59.976;30.316;2024-03-23T06:45:41;98786.09;;;3.25;95.05
75855;BME280;64502;59.976;30.316;2024-03-23T06:48:08;98789.53;;;3.26;95.19
75855;BME280;64502;59.976;30.316;2024-03-23T06:50:34;98792.91;;;3.28;95.38
75855;BME280;64502;59.976;30.316;2024-03-23T06:53:00;98787.41;;;3.32;95.74
75855;BME280;64502;59.976;30.316;2024-03-23T06:55:28;98789.75;;;3.37;95.49
75855;BME280;64502;59.976;30.316;2024-03-23T06:57:53;98779.88;;;3.42;95.74
75855;BME280;64502;59.976;30.316;2024-03-23T07:00:19;98792.66;;;3.47;95.52
75855;BME280;64502;59.976;30.316;2024-03-23T07:02:45;98789.56;;;3.54;95.83
75855;BME280;64502;59.976;30.316;2024-03-23T07:05:10;98783.25;;;3.59;95.79
75855;BME280;64502;59.976;30.316;2024-03-23T07:07:38;98795.91;;;3.65;95.62
75855;BME280;64502;59.976;30.316;2024-03-23T07:10:05;98799.19;;;3.68;95.39
75855;BME280;64502;59.976;30.316;2024-03-23T07:12:31;98795.63;;;3.69;95.78
75855;BME280;64502;59.976;30.316;2024-03-23T07:14:57;98796.09;;;3.76;96.56
75855;BME280;64502;59.976;30.316;2024-03-23T07:17:23;98800.09;;;3.82;95.80
75855;BME280;64502;59.976;30.316;2024-03-23T07:19:48;98803.44;;;3.84;95.40
75855;BME280;64502;59.976;30.316;2024-03-23T07:22:15;98811.53;;;3.79;94.55
75855;BME280;64502;59.976;30.316;2024-03-23T07:25:01;98811.00;;;3.74;94.02
75855;BME280;64502;59.976;30.316;2024-03-23T07:27:30;98801.69;;;3.70;94.98
75855;BME280;64502;59.976;30.316;2024-03-23T07:29:58;98803.84;;;3.63;94.73
75855;BME280;64502;59.976;30.316;2024-03-23T07:32:24;98812.13;;;3.55;94.68
75855;BME280;64502;59.976;30.316;2024-03-23T07:34:49;98816.13;;;3.47;94.69
75855;BME280;64502;59.976;30.316;2024-03-23T07:37:16;98819.19;;;3.39;94.81
75855;BME280;64502;59.976;30.316;2024-03-23T07:39:42;98813.66;;;3.29;95.24
75855;BME280;64502;59.976;30.316;2024-03-23T07:42:12;98816.44;;;3.26;94.92
75855;BME280;64502;59.976;30.316;2024-03-23T07:44:38;98816.06;;;3.18;95.93
75855;BME280;64502;59.976;30.316;2024-03-23T07:47:03;98838.84;;;3.15;95.68
75855;BME280;64502;59.976;30.316;2024-03-23T07:49:29;98829.44;;;3.12;95.22
75855;BME280;64502;59.976;30.316;2024-03-23T07:51:55;98828.63;;;3.11;95.93
75855;BME280;64502;59.976;30.316;2024-03-23T07:54:21;98830.09;;;3.16;96.62
75855;BME280;64502;59.976;30.316;2024-03-23T07:56:47;98831.44;;;3.23;96.67
75855;BME280;64502;59.976;30.316;2024-03-23T07:59:13;98840.72;;;3.27;96.32
75855;BME280;64502;59.976;30.316;2024-03-23T08:01:38;98837.47;;;3.23;96.47
75855;BME280;64502;59.976;30.316;2024-03-23T08:04:05;98821.00;;;3.23;96.28
75855;BME280;64502;59.976;30.316;2024-03-23T08:06:31;98818.41;;;3.23;96.63
75855;BME280;64502;59.976;30.316;2024-03-23T08:08:57;98854.13;;;3.21;95.74
75855;BME280;64502;59.976;30.316;2024-03-23T08:11:28;98847.44;;;3.17;95.74
75855;BME280;64502;59.976;30.316;2024-03-23T08:13:54;98846.56;;;3.16;96.33
75855;BME280;64502;59.976;30.316;2024-03-23T08:16:20;98852.06;;;3.11;95.61
75855;BME280;64502;59.976;30.316;2024-03-23T08:18:46;98858.38;;;3.07;96.08
75855;BME280;64502;59.976;30.316;2024-03-23T08:21:11;98857.47;;;3.08;96.09
75855;BME280;64502;59.976;30.316;2024-03-23T08:23:56;98860.06;;;3.08;96.29
75855;BME280;64502;59.976;30.316;2024-03-23T08:26:21;98861.41;;;3.00;95.39
75855;BME280;64502;59.976;30.316;2024-03-23T08:28:47;98866.91;;;2.95;95.29
75855;BME280;64502;59.976;30.316;2024-03-23T08:31:13;98859.34;;;2.91;95.67
75855;BME280;64502;59.976;30.316;2024-03-23T08:33:42;98882.00;;;2.88;95.00
75855;BME280;64502;59.976;30.316;2024-03-23T08:36:10;98886.56;;;2.85;95.10
75855;BME280;64502;59.976;30.316;2024-03-23T08:38:39;98881.13;;;2.74;94.23
75855;BME280;64502;59.976;30.316;2024-03-23T08:41:09;98884.72;;;2.71;95.13
75855;BME280;64502;59.976;30.316;2024-03-23T08:43:37;98899.53;;;2.71;95.43
75855;BME280;64502;59.976;30.316;2024-03-23T08:46:07;98888.16;;;2.72;94.67
75855;BME280;64502;59.976;30.316;2024-03-23T08:48:38;98895.22;;;2.70;95.12
75855;BME280;64502;59.976;30.316;2024-03-23T08:51:05;98886.75;;;2.66;94.36
75855;BME280;64502;59.976;30.316;2024-03-23T08:53:50;98891.13;;;2.65;95.64
75855;BME280;64502;59.976;30.316;2024-03-23T08:56:15;98886.75;;;2.66;96.06
75855;BME280;64502;59.976;30.316;2024-03-23T08:58:41;98896.16;;;2.69;95.86
75855;BME280;64502;59.976;30.316;2024-03-23T09:01:12;98902.03;;;2.72;95.32
75855;BME280;64502;59.976;30.316;2024-03-23T09:03:41;98899.53;;;2.71;95.29
75855;BME280;64502;59.976;30.316;2024-03-23T09:06:11;98896.75;;;2.74;95.13
75855;BME280;64502;59.976;30.316;2024-03-23T09:08:39;98918.34;;;2.76;95.49
75855;BME280;64502;59.976;30.316;2024-03-23T09:11:07;98935.81;;;2.74;94.93
75855;BME280;64502;59.976;30.316;2024-03-23T09:13:36;98898.69;;;2.70;94.34
75855;BME280;64502;59.976;30.316;2024-03-23T09:16:03;98906.63;;;2.67;94.76
75855;BME280;64502;59.976;30.316;2024-03-23T09:18:35;98930.06;;;2.67;95.27
75855;BME280;64502;59.976;30.316;2024-03-23T09:21:01;98932.78;;;2.65;93.89
75855;BME280;64502;59.976;30.316;2024-03-23T09:23:27;98919.94;;;2.62;94.70
75855;BME280;64502;59.976;30.316;2024-03-23T09:25:52;98934.63;;;2.63;94.35
75855;BME280;64502;59.976;30.316;2024-03-23T09:28:18;98930.59;;;2.58;94.19
75855;BME280;64502;59.976;30.316;2024-03-23T09:30:44;98920.09;;;2.59;94.34
75855;BME280;64502;59.976;30.316;2024-03-23T09:33:13;98940.16;;;2.57;94.52
75855;BME280;64502;59.976;30.316;2024-03-23T09:35:40;98951.59;;;2.55;94.50
75855;BME280;64502;59.976;30.316;2024-03-23T09:38:07;98939.56;;;2.52;94.09
75855;BME280;64502;59.976;30.316;2024-03-23T09:40:34;98943.34;;;2.47;93.98
75855;BME280;64502;59.976;30.316;2024-03-23T09:43:00;98944.09;;;2.49;94.20
75855;BME280;64502;59.976;30.316;2024-03-23T09:45:29;98948.97;;;2.55;94.56
75855;BME280;64502;59.976;30.316;2024-03-23T09:47:55;98954.94;;;2.57;93.93
75855;BME280;64502;59.976;30.316;2024-03-23T09:50:22;98941.75;;;2.60;94.10
75855;BME280;64502;59.976;30.316;2024-03-23T09:52:48;98973.06;;;2.58;93.54
75855;BME280;64502;59.976;30.316;2024-03-23T09:55:14;98953.25;;;2.56;93.76
75855;BME280;64502;59.976;30.316;2024-03-23T09:57:40;98947.16;;;2.57;93.73
75855;BME280;64502;59.976;30.316;2024-03-23T10:00:06;98968.97;;;2.54;93.16
75855;BME280;64502;59.976;30.316;2024-03-23T10:05:21;98967.09;;;2.56;93.21
75855;BME280;64502;59.976;30.316;2024-03-23T10:07:49;98971.25;;;2.60;93.30
75855;BME280;64502;59.976;30.316;2024-03-23T10:10:16;98978.81;;;2.65;93.03
75855;BME280;64502;59.976;30.316;2024-03-23T10:12:45;98989.06;;;2.68;92.97
75855;BME280;64502;59.976;30.316;2024-03-23T10:15:19;98976.81;;;2.70;93.19
75855;BME280;64502;59.976;30.316;2024-03-23T10:17:45;98980.06;;;2.74;93.45
75855;BME280;64502;59.976;30.316;2024-03-23T10:20:11;98980.66;;;2.79;92.80
75855;BME280;64502;59.976;30.316;2024-03-23T10:22:40;98996.78;;;2.85;92.51
75855;BME280;64502;59.976;30.316;2024-03-23T10:25:10;98987.16;;;2.87;92.06
75855;BME280;64502;59.976;30.316;2024-03-23T10:27:58;98990.50;;;2.89;91.25
75855;BME280;64502;59.976;30.316;2024-03-23T10:30:23;99005.53;;;2.84;90.72
75855;BME280;64502;59.976;30.316;2024-03-23T10:33:14;98998.63;;;2.83;90.04
75855;BME280;64502;59.976;30.316;2024-03-23T10:35:40;99028.28;;;2.81;90.10
75855;BME280;64502;59.976;30.316;2024-03-23T10:38:07;99006.38;;;2.85;89.77
75855;BME280;64502;59.976;30.316;2024-03-23T10:40:37;99001.34;;;2.82;90.20
75855;BME280;64502;59.976;30.316;2024-03-23T10:43:06;99013.44;;;2.83;90.13
75855;BME280;64502;59.976;30.316;2024-03-23T10:45:33;99007.38;;;2.82;90.51
75855;BME280;64502;59.976;30.316;2024-03-23T10:47:59;99013.19;;;2.87;90.23
75855;BME280;64502;59.976;30.316;2024-03-23T10:50:26;99022.78;;;2.87;88.28
75855;BME280;64502;59.976;30.316;2024-03-23T10:52:53;99017.41;;;2.90;89.47
75855;BME280;64502;59.976;30.316;2024-03-23T10:55:20;99022.59;;;2.90;89.32
75855;BME280;64502;59.976;30.316;2024-03-23T11:00:38;99029.66;;;2.88;89.28
75855;BME280;64502;59.976;30.316;2024-03-23T11:03:32;99024.22;;;2.93;90.25
75855;BME280;64502;59.976;30.316;2024-03-23T11:06:00;99033.88;;;2.91;88.90
75855;BME280;64502;59.976;30.316;2024-03-23T11:08:39;99025.03;;;2.93;89.54
75855;BME280;64502;59.976;30.316;2024-03-23T11:11:21;99025.81;;;2.95;89.16
75855;BME280;64502;59.976;30.316;2024-03-23T11:13:52;99028.31;;;2.97;89.02
75855;BME280;64502;59.976;30.316;2024-03-23T11:16:29;99022.25;;;2.96;87.95
75855;BME280;64502;59.976;30.316;2024-03-23T11:19:34;99031.44;;;3.03;87.87
75855;BME280;64502;59.976;30.316;2024-03-23T11:22:01;99032.63;;;2.98;87.76
75855;BME280;64502;59.976;30.316;2024-03-23T11:24:26;99028.25;;;2.98;88.53
75855;BME280;64502;59.976;30.316;2024-03-23T11:27:17;99040.34;;;2.99;87.49
75855;BME280;64502;59.976;30.316;2024-03-23T11:29:43;99042.03;;;3.00;87.63
75855;BME280;64502;59.976;30.316;2024-03-23T11:32:09;99042.78;;;3.02;88.28
75855;BME280;64502;59.976;30.316;2024-03-23T11:34:40;99054.78;;;3.05;88.34
75855;BME280;64502;59.976;30.316;2024-03-23T11:37:06;99049.59;;;3.05;87.64
75855;BME280;64502;59.976;30.316;2024-03-23T11:39:32;99049.34;;;3.09;88.58
75855;BME280;64502;59.976;30.316;2024-03-23T11:41:59;99057.66;;;3.16;87.69
75855;BME280;64502;59.976;30.316;2024-03-23T11:44:27;99066.56;;;3.12;nan
75855;BME280;64502;59.976;30.316;2024-03-23T11:46:53;99053.03;;;3.05;87.17
75855;BME280;64502;59.976;30.316;2024-03-23T11:49:25;99060.94;;;3.04;87.19
75855;BME280;64502;59.976;30.316;2024-03-23T11:51:53;99067.41;;;2.97;87.95
75855;BME280;64502;59.976;30.316;2024-03-23T11:54:26;99055.31;;;2.96;88.60
75855;BME280;64502;59.976;30.316;2024-03-23T12:01:59;99064.44;;;2.87;90.18
75855;BME280;64502;59.976;30.316;2024-03-23T12:04:29;99065.28;;;2.87;90.29
75855;BME280;64502;59.976;30.316;2024-03-23T12:07:15;99072.50;;;2.82;90.20
75855;BME280;64502;59.976;30.316;2024-03-23T12:09:44;99084.25;;;2.74;91.10
75855;BME280;64502;59.976;30.316;2024-03-23T12:12:15;99079.22;;;2.71;91.27
75855;BME280;64502;59.976;30.316;2024-03-23T12:14:45;99078.28;;;2.72;91.33
75855;BME280;64502;59.976;30.316;2024-03-23T12:17:15;99082.66;;;2.71;92.65
75855;BME280;64502;59.976;30.316;2024-03-23T12:19:41;99082.47;;;2.74;91.89
75855;BME280;64502;59.976;30.316;2024-03-23T12:22:08;99081.72;;;2.72;91.86
75855;BME280;64502;59.976;30.316;2024-03-23T12:24:34;99070.69;;;2.67;91.41
75855;BME280;64502;59.976;30.316;2024-03-23T12:27:04;99084.81;;;2.63;91.78
75855;BME280;64502;59.976;30.316;2024-03-23T12:29:34;99080.44;;;2.63;91.98
75855;BME280;64502;59.976;30.316;2024-03-23T12:32:01;99089.91;;;2.64;92.51
75855;BME280;64502;59.976;30.316;2024-03-23T12:34:27;99084.03;;;2.61;92.42
75855;BME280;64502;59.976;30.316;2024-03-23T12:36:53;99092.69;;;2.61;91.31
75855;BME280;64502;59.976;30.316;2024-03-23T12:39:19;99084.66;;;2.66;91.07
75855;BME280;64502;59.976;30.316;2024-03-23T12:41:49;99090.69;;;2.66;90.60
75855;BME280;64502;59.976;30.316;2024-03-23T12:44:14;99086.31;;;2.67;90.10
75855;BME280;64502;59.976;30.316;2024-03-23T12:46:42;99101.81;;;2.70;89.70
75855;BME280;64502;59.976;30.316;2024-03-23T12:49:07;99093.22;;;2.68;90.41
75855;BME280;64502;59.976;30.316;2024-03-23T12:51:33;99102.66;;;2.71;89.57
75855;BME280;64502;59.976;30.316;2024-03-23T12:53:59;99097.44;;;2.71;89.02
75855;BME280;64502;59.976;30.316;2024-03-23T12:56:43;99104.41;;;2.70;88.52
75855;BME280;64502;59.976;30.316;2024-03-23T12:59:09;99101.72;;;2.72;88.25
75855;BME280;64502;59.976;30.316;2024-03-23T13:01:34;99112.06;;;2.73;88.09
75855;BME280;64502;59.976;30.316;2024-03-23T13:04:00;99118.88;;;2.76;88.22
75855;BME280;64502;59.976;30.316;2024-03-23T13:06:26;99128.38;;;2.77;87.09
75855;BME280;64502;59.976;30.316;2024-03-23T13:08:52;99115.28;;;2.78;86.69
75855;BME280;64502;59.976;30.316;2024-03-23T13:11:20;99115.00;;;2.83;86.97
75855;BME280;64502;59.976;30.316;2024-03-23T13:13:46;99115.78;;;2.85;86.51
75855;BME280;64502;59.976;30.316;2024-03-23T13:16:11;99117.38;;;2.87;87.27
75855;BME280;64502;59.976;30.316;2024-03-23T13:18:37;99123.19;;;2.93;86.88
75855;BME280;64502;59.976;30.316;2024-03-23T13:21:04;99130.75;;;2.97;85.32
75855;BME280;64502;59.976;30.316;2024-03-23T13:23:29;99130.69;;;2.99;85.91
75855;BME280;64502;59.976;30.316;2024-03-23T13:25:56;99134.22;;;2.98;85.44
75855;BME280;64502;59.976;30.316;2024-03-23T13:28:22;99126.63;;;2.93;85.21
75855;BME280;64502;59.976;30.316;2024-03-23T13:30:51;99134.41;;;2.95;85.44
75855;BME280;64502;59.976;30.316;2024-03-23T13:33:17;99154.38;;;2.94;85.71
75855;BME280;64502;59.976;30.316;2024-03-23T13:38:15;99131.53;;;2.99;85.18
75855;BME280;64502;59.976;30.316;2024-03-23T13:40:58;99136.66;;;3.01;85.66
75855;BME280;64502;59.976;30.316;2024-03-23T13:43:25;99116.72;;;3.00;85.65
75855;BME280;64502;59.976;30.316;2024-03-23T13:45:55;99145.66;;;2.95;85.01
75855;BME280;64502;59.976;30.316;2024-03-23T13:48:23;99147.72;;;2.88;85.48
75855;BME280;64502;59.976;30.316;2024-03-23T13:51:02;99150.31;;;2.88;85.59
75855;BME280;64502;59.976;30.316;2024-03-23T13:53:28;99139.28;;;2.83;85.41
75855;BME280;64502;59.976;30.316;2024-03-23T13:55:53;99140.16;;;2.84;85.39
75855;BME280;64502;59.976;30.316;2024-03-23T13:58:19;99148.03;;;2.82;85.71
75855;BME280;64502;59.976;30.316;2024-03-23T14:00:45;99151.41;;;2.84;85.33
75855;BME280;64502;59.976;30.316;2024-03-23T14:03:11;99158.28;;;2.85;84.58
75855;BME280;64502;59.976;30.316;2024-03-23T14:05:38;99158.91;;;2.91;84.19
75855;BME280;64502;59.976;30.316;2024-03-23T14:08:13;99164.78;;;2.94;83.76
75855;BME280;64502;59.976;30.316;2024-03-23T14:10:42;99153.91;;;3.03;83.65
75855;BME280;64502;59.976;30.316;2024-03-23T14:13:08;99163.84;;;3.13;82.31
75855;BME280;64502;59.976;30.316;2024-03-23T14:15:35;99163.84;;;3.13;81.55
75855;BME280;64502;59.976;30.316;2024-03-23T14:18:02;99155.25;;;3.10;80.58
75855;BME280;64502;59.976;30.316;2024-03-23T14:20:28;99167.09;;;3.16;81.96